createdAt,value
2022-09-24T00:02:18.247Z,18.45
2022-09-24T00:07:21.085Z,18.20
2022-09-24T00:12:23.465Z,16.20
2022-09-24T00:17:25.947Z,14.00
2022-09-24T00:22:28.366Z,15.35
2022-09-24T00:27:30.778Z,15.77
2022-09-24T00:32:33.283Z,14.52
2022-09-24T00:37:35.657Z,14.55
2022-09-24T00:42:38.116Z,15.48
2022-09-24T00:47:42.175Z,14.57
2022-09-24T00:52:49.943Z,15.63
2022-09-24T00:57:57.761Z,16.95
2022-09-24T01:03:10.620Z,15.45
2022-09-24T01:08:14.658Z,16.13
2022-09-24T01:13:35.152Z,16.48
2022-09-24T01:18:58.128Z,16.50
2022-09-24T01:24:19.441Z,16.83
2022-09-24T01:29:49.840Z,15.63
2022-09-24T01:35:30.830Z,15.18
2022-09-24T01:40:33.434Z,13.70
2022-09-24T01:45:38.726Z,14.63
2022-09-24T01:50:49.168Z,15.23
2022-09-24T01:55:58.052Z,15.60
2022-09-24T02:01:10.708Z,14.30
2022-09-24T02:06:18.098Z,14.50
2022-09-24T02:11:24.531Z,16.35
2022-09-24T02:16:50.077Z,14.40
2022-09-24T02:21:52.761Z,15.20
2022-09-24T02:26:55.421Z,16.20
2022-09-24T02:31:59.822Z,14.98
2022-09-24T02:37:14.186Z,13.77
2022-09-24T02:42:19.324Z,15.43
2022-09-24T02:47:21.724Z,14.57
2022-09-24T02:52:24.186Z,16.23
2022-09-24T02:57:26.604Z,15.25
2022-09-24T03:02:29.129Z,14.40
2022-09-24T03:07:31.626Z,14.18
2022-09-24T03:12:34.084Z,14.93
2022-09-24T03:17:36.931Z,13.27
2022-09-24T03:22:39.339Z,16.05
2022-09-24T03:27:41.704Z,15.27
2022-09-24T03:32:44.171Z,12.85
2022-09-24T03:37:49.225Z,18.88
2022-09-24T03:42:51.830Z,13.00
2022-09-24T03:47:54.863Z,15.30
2022-09-24T03:52:57.290Z,16.05
2022-09-24T03:57:59.650Z,13.68
2022-09-24T04:03:02.186Z,12.45
2022-09-24T04:08:07.795Z,15.15
2022-09-24T04:13:10.148Z,13.55
2022-09-24T04:18:12.574Z,13.68
2022-09-24T04:23:15.426Z,16.05
2022-09-24T04:28:18.320Z,12.68
2022-09-24T04:33:20.699Z,14.02
2022-09-24T04:38:26.257Z,13.05
2022-09-24T04:43:28.958Z,13.48
2022-09-24T04:48:31.994Z,14.95
2022-09-24T04:53:36.747Z,13.13
2022-09-24T04:58:39.723Z,17.58
2022-09-24T05:03:42.175Z,16.63
2022-09-24T05:08:44.528Z,13.23
2022-09-24T05:13:47.120Z,16.65
2022-09-24T05:18:49.568Z,13.40
2022-09-24T05:23:51.933Z,12.52
2022-09-24T05:28:54.494Z,11.93
2022-09-24T05:33:57.556Z,13.65
2022-09-24T05:38:59.888Z,14.40
2022-09-24T05:44:02.811Z,13.35
2022-09-24T05:49:05.331Z,13.38
2022-09-24T05:54:07.835Z,12.60
2022-09-24T05:59:10.562Z,13.43
2022-09-24T06:04:13.120Z,13.45
2022-09-24T06:09:15.502Z,13.95
2022-09-24T06:14:17.894Z,13.43
2022-09-24T06:19:20.523Z,12.52
2022-09-24T06:24:25.968Z,14.40
2022-09-24T06:29:32.160Z,13.30
2022-09-24T06:34:35.467Z,14.02
2022-09-24T06:39:40.790Z,12.48
2022-09-24T06:44:43.319Z,13.70
2022-09-24T06:49:45.918Z,14.98
2022-09-24T06:54:48.373Z,12.75
2022-09-24T06:59:51.732Z,13.18
2022-09-24T07:04:54.189Z,12.50
2022-09-24T07:09:57.706Z,13.48
2022-09-24T07:15:03.183Z,11.88
2022-09-24T07:20:06.037Z,12.32
2022-09-24T07:25:10.603Z,13.68
2022-09-24T07:30:13.288Z,12.52
2022-09-24T07:35:15.732Z,12.68
2022-09-24T07:40:18.343Z,12.27
2022-09-24T07:45:21.503Z,13.10
2022-09-24T07:50:23.968Z,13.38
2022-09-24T07:55:26.766Z,11.07
2022-09-24T08:00:29.194Z,13.15
2022-09-24T08:05:33.079Z,12.57
2022-09-24T08:10:35.498Z,10.70
2022-09-24T08:15:37.967Z,14.13
2022-09-24T08:20:40.536Z,11.68
2022-09-24T08:25:42.941Z,12.27
2022-09-24T08:30:45.563Z,10.15
2022-09-24T08:35:48.043Z,9.90
2022-09-24T08:40:55.058Z,9.90
2022-09-24T08:46:20.860Z,14.48
2022-09-24T08:51:24.492Z,11.32
2022-09-24T08:56:34.079Z,10.63
2022-09-24T09:01:40.015Z,11.73
2022-09-24T09:06:50.184Z,12.52
2022-09-24T09:12:05.835Z,8.90
2022-09-24T09:17:43.057Z,9.20
2022-09-24T09:22:48.998Z,10.85
2022-09-24T09:27:57.398Z,12.20
2022-09-24T09:33:23.722Z,9.35
2022-09-24T09:38:51.442Z,10.77
2022-09-24T09:44:10.933Z,11.63
2022-09-24T09:49:14.480Z,10.02
2022-09-24T10:05:55.661Z,10.02
2022-09-24T10:11:00.488Z,13.75
2022-09-24T10:16:08.575Z,9.45
2022-09-24T10:21:15.005Z,9.25
2022-09-24T10:26:17.729Z,7.95
2022-09-24T10:31:24.074Z,8.80
2022-09-24T10:36:30.019Z,8.60
2022-09-24T10:41:32.902Z,11.82
2022-09-24T10:46:53.712Z,10.43
2022-09-24T10:52:17.555Z,9.05
2022-09-24T10:57:25.310Z,11.02
2022-09-24T11:02:42.860Z,7.63
2022-09-24T11:07:56.695Z,8.13
2022-09-24T11:13:24.069Z,7.68
2022-09-24T11:18:41.685Z,8.18
2022-09-24T11:23:59.392Z,11.15
2022-09-24T11:29:42.804Z,8.77
2022-09-24T11:34:55.015Z,5.72
2022-09-24T11:40:17.684Z,8.10
2022-09-24T11:45:36.256Z,11.40
2022-09-24T11:50:57.458Z,9.13
2022-09-24T11:56:09.443Z,11.52
2022-09-24T12:01:25.244Z,10.23
2022-09-24T12:06:42.234Z,10.18
2022-09-24T12:11:49.570Z,10.23
2022-09-24T12:17:09.469Z,8.70
2022-09-24T12:22:13.357Z,7.22
2022-09-24T12:27:35.555Z,7.00
2022-09-24T12:33:00.299Z,6.70
2022-09-24T12:38:28.012Z,7.03
2022-09-24T12:43:39.994Z,6.25
2022-09-24T12:48:44.930Z,3.58
2022-09-24T12:53:57.294Z,2.90
2022-09-24T12:58:59.790Z,3.28
2022-09-24T13:04:05.948Z,3.85
2022-09-24T13:09:38.342Z,3.70
2022-09-24T13:14:43.398Z,3.78
2022-09-24T13:19:47.525Z,4.10
2022-09-24T13:25:15.539Z,3.92
2022-09-24T13:30:37.052Z,7.13
2022-09-24T13:35:47.947Z,4.55
2022-09-24T13:40:56.955Z,8.30
2022-09-24T13:46:00.227Z,9.23
2022-09-24T13:51:05.434Z,6.30
2022-09-24T13:56:14.781Z,4.80
2022-09-24T14:01:27.154Z,6.65
2022-09-24T14:06:39.096Z,4.25
2022-09-24T14:11:50.798Z,4.25
2022-09-24T14:16:56.590Z,5.78
2022-09-24T14:21:59.544Z,4.63
2022-09-24T14:27:06.411Z,6.05
2022-09-24T14:32:23.345Z,6.88
2022-09-24T14:37:33.137Z,4.82
2022-09-24T14:42:44.170Z,6.13
2022-09-24T14:47:46.757Z,5.00
2022-09-24T14:52:56.925Z,4.60
2022-09-24T14:57:59.334Z,4.88
2022-09-24T15:03:11.813Z,6.75
2022-09-24T15:08:28.198Z,4.10
2022-09-24T15:13:35.857Z,3.90
2022-09-24T15:18:38.368Z,4.97
2022-09-24T15:23:40.755Z,4.18
2022-09-24T15:28:43.191Z,7.13
2022-09-24T15:33:45.718Z,4.65
2022-09-24T15:38:52.646Z,4.20
2022-09-24T15:43:59.229Z,4.55
2022-09-24T15:49:01.727Z,4.35
2022-09-24T15:54:04.385Z,4.43
2022-09-24T15:59:14.617Z,4.22
2022-09-24T16:04:17.392Z,4.22
2022-09-24T16:09:19.750Z,4.20
2022-09-24T16:14:22.234Z,4.70
2022-09-24T16:19:24.782Z,6.63
2022-09-24T16:24:27.458Z,6.97
2022-09-24T16:29:29.815Z,9.90
2022-09-24T16:34:33.056Z,9.15
2022-09-24T16:39:35.424Z,7.30
2022-09-24T16:44:37.871Z,7.18
2022-09-24T16:49:40.321Z,6.43
2022-09-24T16:54:43.026Z,5.20
2022-09-24T16:59:45.586Z,7.22
2022-09-24T17:04:48.168Z,5.55
2022-09-24T17:10:09.174Z,7.18
2022-09-24T17:15:14.855Z,6.00
2022-09-24T17:20:18.366Z,6.45
2022-09-24T17:25:20.803Z,7.60
2022-09-24T17:30:23.488Z,6.45
2022-09-24T17:35:26.491Z,5.25
2022-09-24T17:40:28.970Z,5.95
2022-09-24T17:45:31.443Z,8.50
2022-09-24T17:50:33.980Z,6.43
2022-09-24T17:55:37.503Z,8.73
2022-09-24T18:00:40.114Z,6.55
2022-09-24T18:05:43.370Z,6.55
2022-09-24T18:10:45.813Z,7.10
2022-09-24T18:15:48.584Z,8.23
2022-09-24T18:20:56.828Z,11.63
2022-09-24T18:26:16.184Z,8.75
2022-09-24T18:31:20.494Z,10.45
2022-09-24T18:36:25.643Z,10.70
2022-09-24T18:41:30.675Z,11.10
2022-09-24T18:46:33.959Z,11.57
2022-09-24T18:51:37.882Z,12.35
2022-09-24T18:56:40.766Z,10.07
2022-09-24T19:01:47.173Z,12.60
2022-09-24T19:06:50.897Z,11.60
2022-09-24T19:11:53.466Z,11.35
2022-09-24T19:16:57.099Z,13.20
2022-09-24T19:21:59.584Z,9.48
2022-09-24T19:27:02.082Z,12.27
2022-09-24T19:32:08.536Z,13.38
2022-09-24T19:37:10.966Z,12.05
2022-09-24T19:42:13.353Z,12.93
2022-09-24T19:47:15.826Z,12.43
2022-09-24T19:52:21.263Z,12.38
2022-09-24T19:57:23.725Z,13.05
2022-09-24T20:02:26.409Z,12.95
2022-09-24T20:07:29.114Z,13.38
2022-09-24T20:12:34.879Z,16.67
2022-09-24T20:17:40.545Z,12.07
2022-09-24T20:22:43.481Z,16.33
2022-09-24T20:27:51.542Z,11.85
2022-09-24T20:32:54.110Z,14.90
2022-09-24T20:37:56.570Z,14.57
2022-09-24T20:42:59.143Z,15.98
2022-09-24T20:48:01.758Z,14.23
2022-09-24T20:53:04.153Z,16.40
2022-09-24T20:58:07.659Z,15.35
2022-09-24T21:03:25.872Z,13.20
2022-09-24T21:08:40.801Z,15.48
2022-09-24T21:13:45.881Z,16.33
2022-09-24T21:18:49.915Z,20.55
2022-09-24T21:23:54.347Z,18.02
2022-09-24T21:29:00.365Z,17.70
2022-09-24T21:34:03.757Z,19.38
2022-09-24T21:39:12.978Z,15.45
2022-09-24T21:44:19.888Z,17.55
2022-09-24T21:49:25.558Z,18.92
2022-09-24T21:54:27.940Z,16.08
2022-09-24T21:59:48.595Z,16.20
2022-09-24T22:04:51.018Z,18.77
2022-09-24T22:09:53.556Z,37.67
2022-09-24T22:14:56.127Z,25.83
2022-09-24T22:19:58.627Z,29.50
2022-09-24T22:25:01.115Z,24.98
2022-09-24T22:30:04.221Z,24.52
2022-09-24T22:35:25.656Z,24.92
2022-09-24T22:40:28.618Z,27.40
2022-09-24T22:45:30.968Z,24.90
2022-09-24T22:50:33.303Z,25.25
2022-09-24T22:55:35.794Z,24.23
2022-09-24T23:00:38.278Z,29.75
2022-09-24T23:05:40.697Z,22.17
2022-09-24T23:10:43.110Z,27.10
2022-09-24T23:15:45.740Z,24.13
2022-09-24T23:20:48.103Z,27.38
2022-09-24T23:25:50.517Z,24.23
2022-09-24T23:30:59.837Z,22.38
2022-09-24T23:36:03.413Z,22.55
2022-09-24T23:41:07.325Z,22.27
2022-09-24T23:46:11.179Z,22.92
2022-09-24T23:51:14.060Z,19.75
2022-09-24T23:56:16.475Z,22.90
